Alexandria, SD

5:54 AM CST on November 13, 2019 (GMT -0600)
Westview Drive | | Change Station
Active Advisory: Flood Warning

Elev 1306 ft 43.73 °N, 98.00 °W | Updated 27 seconds ago

Overcast
Overcast
35 °F
Feels Like 35 °F
N
2.6
Wind Variable Wind from West
Gusts 3.0 mph

Today
High -- | Low -- °F
--% Chance of Precip.
Yesterday
High -- | Low -- °F
Precip. -- in
Pressure 29.85 in
Visibility 10.0 miles
Clouds Overcast 11000 ft
Windchill 35 °F
Dew Point 29 °F
Humidity 82%
Rainfall 0.00 in
Snow Depth Not available.
7:22 AM 5:07 PM
Full, 99% visible
METAR KMHE 131053Z AUTO 26005KT 10SM OVC110 02/M02 A2981 RMK AO2 SLP107 T00171017
Pressure 29.85 in
Visibility 10.0 miles
Clouds Overcast 11000 ft
Windchill 35 °F
Dew Point 29 °F
Humidity 82%
Rainfall 0.00 in
Snow Depth Not available.
7:22 AM 5:07 PM
Full, 99% visible
METAR KMHE 131053Z AUTO 26005KT 10SM OVC110 02/M02 A2981 RMK AO2 SLP107 T00171017

Get Your Daily Forecast Email!

Thanks for signing up!

Be on the lookout for a verification email in your inbox.

You'll start receiving severe weather alerts in your inbox..

×

10-Day Weather Forecast

Almanac

Astronomy

Nov. 13, 2019 Rise Set
Actual Time
Civil Twilight
Nautical Twilight
Astronomical Twilight
Moon
Length of Visible Light
Length of Day
Tomorrow will be .
, % of the Moon is Illuminated

Today's Extremes

State Highs State Lows

Community

WunderPhotos

Category 6

Welcome to Category 6. This is the collective home for Weather Underground's featured writeups by Dr. Jeff Masters (right), Bob Henson (left), Chris Burt, and other regular contributors.

Nearby

Air Quality

  Air Quality AQ Index Pollutant
Not available.

Snow Depth

Station Depth Elevation

Earthquake Activity

City Distance Mag. Time & Date
Minimum magnitude displayed is 2.5.

Coastal Water Temperatures

Place Temperature

Stations

Nearby Weather Stations

Station Location Temp. Windchill Dew Point Humidity Wind Precip. Elev Updated Type
                   

Watches & Warnings

Flood Warning
Issued: 10:04 AM CST Nov. 12, 2019 – National Weather Service

The Flood Warning continues for
the James River at Mitchell.
* Until further notice.
* At 08am Tuesday the stage was 17.28 feet.
* Minor flooding is occurring and minor flooding is forecast.
* Flood stage is 17.00 feet.
* Forecast... the river will continue rising to near 17.5 feet by
Tuesday November 19. Additional rises may be possible thereafter.
* At stages near 17.0 feet... the lower banks overflow.


Lat... Lon 4393 9812 4393 9798 4370 9789 4340 9763
          4338 9777 4351 9797


Location flood latest observed maximum forecast recent observed
         stage stage time stage time crest time

Missouri River
grws2 30.0 32.09 Tue 9 am 32.2 Wed Nov 06
mrvn1 24.0 24.76 Tue 9 am 24.9 Wed Nov 06
mrnn1 21.0 25.75 Tue 9 am 26.0 Wed Nov 06
spgs2 10.0 11.77 Tue 9 am 11.9 Wed Nov 06

James River
hurs2 11.0 11.39 Tue 10 am 12.2 Mon 12 am 11.8 Mon Nov 11